createdAt,value
2023-01-29T00:00:49.227Z,87.49
2023-01-29T00:01:49.304Z,87.49
2023-01-29T00:02:49.133Z,87.49
2023-01-29T00:03:49.048Z,87.58
2023-01-29T00:04:48.976Z,87.30
2023-01-29T00:05:48.932Z,87.11
2023-01-29T00:06:48.848Z,87.11
2023-01-29T00:07:48.789Z,87.49
2023-01-29T00:08:48.731Z,87.68
2023-01-29T00:09:48.668Z,87.11
2023-01-29T00:10:48.600Z,87.77
2023-01-29T00:11:48.554Z,87.77
2023-01-29T00:12:48.488Z,87.20
2023-01-29T00:13:48.428Z,87.49
2023-01-29T00:14:48.361Z,87.49
2023-01-29T00:15:48.295Z,87.58
2023-01-29T00:16:48.264Z,87.11
2023-01-29T00:17:48.187Z,87.58
2023-01-29T00:18:48.108Z,87.49
2023-01-29T00:19:48.043Z,87.58
2023-01-29T00:20:47.981Z,87.49
2023-01-29T00:21:47.925Z,87.11
2023-01-29T00:22:49.422Z,87.49
2023-01-29T00:23:47.796Z,87.58
2023-01-29T00:24:49.433Z,87.20
2023-01-29T00:25:49.419Z,87.11
2023-01-29T00:26:47.607Z,87.01
2023-01-29T00:27:47.585Z,87.01
2023-01-29T00:28:47.483Z,87.11
2023-01-29T00:29:47.424Z,87.11
2023-01-29T00:30:47.367Z,87.30
2023-01-29T00:31:47.457Z,87.49
2023-01-29T00:32:47.242Z,87.20
2023-01-29T00:33:47.184Z,87.20
2023-01-29T00:34:47.120Z,87.30
2023-01-29T00:35:47.082Z,87.01
2023-01-29T00:36:47.054Z,87.20
2023-01-29T00:37:46.940Z,87.01
2023-01-29T00:38:46.866Z,87.30
2023-01-29T00:39:48.376Z,87.39
2023-01-29T00:40:46.742Z,87.20
2023-01-29T00:41:46.680Z,87.01
2023-01-29T00:42:46.620Z,86.91
2023-01-29T00:43:46.572Z,87.01
2023-01-29T00:44:46.493Z,87.20
2023-01-29T00:45:46.438Z,86.72
2023-01-29T00:46:46.464Z,87.30
2023-01-29T00:47:46.311Z,87.11
2023-01-29T00:48:46.244Z,86.82
2023-01-29T00:49:46.194Z,87.01
2023-01-29T00:50:46.130Z,87.30
2023-01-29T00:51:46.058Z,86.72
2023-01-29T00:52:46.016Z,87.11
2023-01-29T00:53:45.939Z,86.44
2023-01-29T00:54:45.877Z,87.20
2023-01-29T00:55:45.813Z,86.54
2023-01-29T00:56:45.754Z,87.01
2023-01-29T00:57:45.703Z,87.39
2023-01-29T00:58:45.621Z,86.54
2023-01-29T00:59:45.568Z,86.63
2023-01-29T01:00:45.534Z,86.54
2023-01-29T01:01:45.583Z,87.39
2023-01-29T01:02:45.378Z,87.01
2023-01-29T01:03:45.316Z,86.72
2023-01-29T01:04:45.255Z,86.54
2023-01-29T01:05:45.192Z,87.11
2023-01-29T01:06:45.130Z,86.72
2023-01-29T01:07:45.082Z,87.39
2023-01-29T01:08:45.016Z,87.11
2023-01-29T01:09:44.944Z,86.63
2023-01-29T01:10:44.889Z,86.72
2023-01-29T01:11:44.823Z,86.63
2023-01-29T01:12:44.756Z,86.63
2023-01-29T01:13:44.698Z,86.82
2023-01-29T01:14:44.643Z,87.01
2023-01-29T01:15:44.578Z,87.01
2023-01-29T01:16:44.512Z,87.01
2023-01-29T01:17:44.452Z,86.91
2023-01-29T01:18:44.390Z,87.30
2023-01-29T01:19:44.325Z,86.72
2023-01-29T01:20:44.260Z,86.91
2023-01-29T01:21:44.200Z,87.11
2023-01-29T01:22:44.133Z,86.63
2023-01-29T01:23:44.072Z,86.63
2023-01-29T01:24:44.011Z,86.72
2023-01-29T01:25:43.950Z,86.63
2023-01-29T01:26:43.888Z,87.01
2023-01-29T01:27:43.827Z,87.20
2023-01-29T01:28:43.763Z,86.91
2023-01-29T01:29:43.698Z,87.11
2023-01-29T01:30:43.647Z,86.72
2023-01-29T01:31:43.636Z,87.01
2023-01-29T01:32:43.518Z,86.72
2023-01-29T01:33:43.452Z,86.91
2023-01-29T01:34:43.395Z,86.72
2023-01-29T01:35:43.336Z,86.91
2023-01-29T01:36:43.268Z,86.82
2023-01-29T01:37:43.208Z,86.91
2023-01-29T01:38:43.141Z,86.72
2023-01-29T01:39:43.085Z,87.20
2023-01-29T01:40:43.021Z,87.01
2023-01-29T01:41:42.956Z,86.72
2023-01-29T01:42:42.892Z,86.82
2023-01-29T01:43:42.828Z,86.72
2023-01-29T01:44:42.780Z,87.30
2023-01-29T01:45:42.769Z,87.20
2023-01-29T01:46:43.413Z,86.72
2023-01-29T01:47:42.597Z,87.30
2023-01-29T01:48:42.528Z,87.11
2023-01-29T01:49:42.464Z,87.39
2023-01-29T01:50:42.405Z,86.82
2023-01-29T01:51:42.348Z,86.63
2023-01-29T01:52:42.276Z,86.91
2023-01-29T01:53:42.208Z,86.63
2023-01-29T01:54:42.160Z,86.72
2023-01-29T01:55:42.096Z,87.01
2023-01-29T01:56:42.023Z,86.91
2023-01-29T01:57:41.978Z,86.91
2023-01-29T01:58:41.899Z,86.72
2023-01-29T01:59:41.836Z,86.91
2023-01-29T02:00:41.857Z,87.11
2023-01-29T02:01:41.711Z,86.91
2023-01-29T02:02:41.652Z,86.82
2023-01-29T02:03:41.596Z,86.54
2023-01-29T02:04:41.531Z,87.01
2023-01-29T02:05:41.464Z,86.91
2023-01-29T02:06:41.402Z,86.91
2023-01-29T02:07:41.342Z,86.63
2023-01-29T02:08:41.278Z,86.82
2023-01-29T02:09:41.219Z,87.01
2023-01-29T02:10:41.156Z,87.11
2023-01-29T02:11:41.095Z,86.72
2023-01-29T02:12:41.044Z,86.54
2023-01-29T02:13:40.969Z,87.01
2023-01-29T02:14:40.955Z,86.72
2023-01-29T02:15:40.851Z,87.01
2023-01-29T02:16:40.783Z,87.01
2023-01-29T02:17:40.760Z,86.82
2023-01-29T02:18:40.667Z,86.54
2023-01-29T02:19:40.607Z,86.72
2023-01-29T02:20:40.543Z,86.91
2023-01-29T02:21:40.475Z,87.01
2023-01-29T02:22:40.419Z,86.82
2023-01-29T02:23:40.400Z,87.01
2023-01-29T02:24:40.318Z,87.01
2023-01-29T02:25:40.228Z,87.01
2023-01-29T02:26:40.165Z,87.11
2023-01-29T02:27:40.103Z,87.11
2023-01-29T02:28:40.037Z,87.01
2023-01-29T02:29:39.975Z,86.63
2023-01-29T02:30:39.937Z,86.54
2023-01-29T02:31:39.885Z,86.82
2023-01-29T02:32:39.788Z,87.01
2023-01-29T02:33:39.731Z,86.44
2023-01-29T02:34:39.663Z,87.01
2023-01-29T02:35:39.606Z,86.72
2023-01-29T02:36:39.542Z,86.35
2023-01-29T02:37:39.483Z,87.01
2023-01-29T02:38:39.416Z,86.91
2023-01-29T02:39:39.354Z,87.11
2023-01-29T02:40:39.298Z,86.25
2023-01-29T02:41:39.228Z,87.01
2023-01-29T02:42:39.184Z,86.63
2023-01-29T02:43:39.106Z,86.63
2023-01-29T02:44:39.072Z,87.01
2023-01-29T02:45:39.032Z,87.01
2023-01-29T02:46:38.923Z,87.11
2023-01-29T02:47:38.863Z,86.82
2023-01-29T02:48:38.796Z,86.91
2023-01-29T02:49:38.733Z,86.82
2023-01-29T02:50:38.674Z,86.72
2023-01-29T02:51:38.618Z,87.11
2023-01-29T02:52:38.552Z,87.01
2023-01-29T02:53:38.490Z,87.11
2023-01-29T02:54:38.427Z,86.72
2023-01-29T02:55:38.364Z,87.01
2023-01-29T02:56:38.373Z,86.54
2023-01-29T02:57:38.237Z,87.11
2023-01-29T02:58:38.177Z,86.54
2023-01-29T02:59:38.111Z,87.01
2023-01-29T03:00:38.055Z,86.91
2023-01-29T03:01:37.986Z,87.01
2023-01-29T03:02:37.954Z,87.11
2023-01-29T03:03:37.862Z,86.82
2023-01-29T03:04:37.800Z,86.82
2023-01-29T03:05:37.738Z,87.11
2023-01-29T03:06:37.678Z,86.35
2023-01-29T03:07:37.640Z,87.01
2023-01-29T03:08:37.558Z,87.01
2023-01-29T03:09:37.503Z,86.16
2023-01-29T03:10:37.431Z,87.01
2023-01-29T03:11:37.363Z,86.72
2023-01-29T03:12:37.307Z,87.11
2023-01-29T03:13:37.248Z,87.11
2023-01-29T03:14:37.183Z,87.01
2023-01-29T03:15:37.119Z,86.16
2023-01-29T03:16:37.119Z,86.07
2023-01-29T03:17:37.002Z,86.16
2023-01-29T03:18:36.933Z,86.25
2023-01-29T03:19:36.877Z,86.16
2023-01-29T03:20:36.835Z,86.44
2023-01-29T03:21:36.745Z,86.54
2023-01-29T03:22:36.688Z,86.44
2023-01-29T03:23:36.630Z,86.25
2023-01-29T03:24:36.557Z,86.16
2023-01-29T03:25:36.500Z,86.16
2023-01-29T03:26:36.439Z,86.16
2023-01-29T03:27:36.376Z,86.25
2023-01-29T03:28:36.311Z,86.35
2023-01-29T03:29:36.253Z,86.63
2023-01-29T03:30:36.189Z,86.35
2023-01-29T03:31:36.234Z,86.35
2023-01-29T03:32:36.070Z,86.25
2023-01-29T03:33:36.002Z,86.25
2023-01-29T03:34:35.943Z,86.72
2023-01-29T03:35:35.875Z,86.25
2023-01-29T03:36:35.818Z,86.54
2023-01-29T03:37:35.755Z,86.25
2023-01-29T03:38:35.697Z,86.25
2023-01-29T03:39:35.637Z,86.44
2023-01-29T03:40:35.563Z,86.44
2023-01-29T03:41:35.513Z,86.16
2023-01-29T03:42:35.450Z,86.54
2023-01-29T03:43:35.395Z,86.25
2023-01-29T03:44:35.318Z,86.63
2023-01-29T03:45:35.268Z,86.63
2023-01-29T03:46:35.192Z,87.01
2023-01-29T03:47:35.132Z,86.63
2023-01-29T03:48:35.087Z,86.35
2023-01-29T03:49:35.011Z,86.54
2023-01-29T03:50:34.948Z,85.97
2023-01-29T03:51:34.881Z,86.44
2023-01-29T03:52:34.835Z,86.25
2023-01-29T03:53:34.756Z,86.44
2023-01-29T03:54:34.694Z,86.16
2023-01-29T03:55:34.632Z,86.16
2023-01-29T03:56:34.573Z,86.35
2023-01-29T03:57:34.508Z,86.16
2023-01-29T03:58:34.446Z,86.35
2023-01-29T03:59:34.392Z,86.54
2023-01-29T04:00:34.321Z,86.44
2023-01-29T04:01:34.350Z,86.25
2023-01-29T04:02:34.199Z,86.16
2023-01-29T04:03:34.222Z,86.25
2023-01-29T04:04:34.074Z,86.44
2023-01-29T04:05:34.013Z,86.44
2023-01-29T04:06:33.958Z,86.07
2023-01-29T04:07:33.891Z,86.44
2023-01-29T04:08:33.831Z,86.44
2023-01-29T04:09:33.769Z,86.44
2023-01-29T04:10:33.702Z,85.78
2023-01-29T04:11:33.646Z,86.25
2023-01-29T04:12:33.579Z,85.87
2023-01-29T04:13:33.513Z,86.54
2023-01-29T04:14:33.462Z,86.63
2023-01-29T04:15:33.496Z,85.68
2023-01-29T04:16:33.409Z,86.25
2023-01-29T04:17:33.274Z,86.35
2023-01-29T04:18:33.208Z,86.35
2023-01-29T04:19:33.142Z,86.63
2023-01-29T04:20:33.088Z,86.16
2023-01-29T04:21:33.071Z,85.87
2023-01-29T04:22:32.953Z,86.25
2023-01-29T04:23:32.891Z,85.87
2023-01-29T04:24:32.830Z,86.44
2023-01-29T04:25:32.773Z,86.44
2023-01-29T04:26:32.710Z,86.35
2023-01-29T04:27:32.653Z,86.25
2023-01-29T04:28:32.588Z,85.87
2023-01-29T04:29:32.525Z,86.44
2023-01-29T04:30:32.477Z,86.44
2023-01-29T04:31:32.547Z,85.78
2023-01-29T04:32:32.338Z,86.07
2023-01-29T04:33:32.274Z,86.16
2023-01-29T04:34:32.213Z,86.07
2023-01-29T04:35:32.160Z,85.87
2023-01-29T04:36:32.084Z,86.16
2023-01-29T04:37:32.021Z,86.07
2023-01-29T04:38:31.966Z,86.07
2023-01-29T04:39:31.914Z,86.07
2023-01-29T04:40:31.843Z,86.63
2023-01-29T04:41:31.784Z,86.63
2023-01-29T04:42:31.734Z,85.97
2023-01-29T04:43:31.649Z,85.87
2023-01-29T04:44:31.591Z,85.78
2023-01-29T04:45:31.534Z,85.97
2023-01-29T04:46:31.466Z,85.78
2023-01-29T04:47:46.010Z,85.78
2023-01-29T04:48:31.344Z,86.54
2023-01-29T04:49:31.276Z,85.97
2023-01-29T04:50:31.217Z,85.78
2023-01-29T04:51:31.158Z,85.97
2023-01-29T04:52:31.091Z,85.78
2023-01-29T04:53:31.030Z,85.87
2023-01-29T04:54:30.971Z,85.97
2023-01-29T04:55:30.908Z,85.97
2023-01-29T04:56:30.842Z,85.87
2023-01-29T04:57:30.780Z,86.35
2023-01-29T04:58:30.735Z,86.35
2023-01-29T04:59:30.660Z,86.44
2023-01-29T05:00:30.595Z,86.35
2023-01-29T05:01:30.584Z,86.44
2023-01-29T05:02:30.573Z,86.35
2023-01-29T05:03:30.405Z,85.87
2023-01-29T05:04:30.351Z,85.87
2023-01-29T05:05:30.287Z,85.97
2023-01-29T05:06:30.228Z,86.35
2023-01-29T05:07:30.156Z,85.97
2023-01-29T05:08:30.101Z,85.97
2023-01-29T05:09:30.048Z,85.87
2023-01-29T05:10:29.974Z,85.87
2023-01-29T05:11:29.916Z,86.44
2023-01-29T05:12:29.851Z,85.97
2023-01-29T05:13:29.800Z,85.97
2023-01-29T05:14:29.731Z,85.97
2023-01-29T05:15:29.662Z,85.87
2023-01-29T05:16:29.725Z,85.87
2023-01-29T05:17:29.539Z,86.25
2023-01-29T05:18:29.474Z,86.25
2023-01-29T05:19:29.418Z,85.87
2023-01-29T05:20:29.358Z,86.25
2023-01-29T05:21:29.345Z,86.25
2023-01-29T05:22:29.229Z,86.25
2023-01-29T05:23:29.164Z,86.25
2023-01-29T05:24:29.158Z,85.68
2023-01-29T05:25:29.043Z,86.07
2023-01-29T05:26:28.981Z,85.87
2023-01-29T05:27:28.915Z,86.07
2023-01-29T05:28:28.859Z,85.97
2023-01-29T05:29:28.791Z,85.87
2023-01-29T05:30:28.734Z,85.78
2023-01-29T05:31:28.835Z,85.97
2023-01-29T05:32:28.707Z,85.87
2023-01-29T05:33:28.546Z,86.35
2023-01-29T05:34:28.490Z,86.07
2023-01-29T05:35:28.426Z,85.97
2023-01-29T05:36:28.359Z,85.87
2023-01-29T05:37:28.298Z,85.87
2023-01-29T05:38:28.237Z,85.68
2023-01-29T05:39:28.167Z,86.07
2023-01-29T05:40:28.119Z,85.87
2023-01-29T05:41:28.048Z,85.97
2023-01-29T05:42:28.059Z,86.35
2023-01-29T05:43:27.926Z,86.35
2023-01-29T05:44:27.866Z,86.44
2023-01-29T05:45:27.803Z,86.07
2023-01-29T05:46:27.779Z,86.35
2023-01-29T05:47:27.675Z,86.16
2023-01-29T05:48:27.654Z,86.35
2023-01-29T05:49:27.548Z,86.16
2023-01-29T05:50:27.493Z,86.16
2023-01-29T05:51:27.544Z,86.16
2023-01-29T05:52:27.369Z,86.07
2023-01-29T05:53:27.304Z,86.35
2023-01-29T05:54:27.243Z,86.35
2023-01-29T05:55:27.175Z,86.35
2023-01-29T05:56:27.114Z,86.44
2023-01-29T05:57:27.059Z,86.35
2023-01-29T05:58:26.989Z,85.97
2023-01-29T05:59:26.932Z,86.44
2023-01-29T06:00:26.884Z,86.07
2023-01-29T06:01:26.805Z,86.16
2023-01-29T06:02:26.740Z,86.16
2023-01-29T06:03:26.679Z,86.35
2023-01-29T06:04:26.621Z,85.78
2023-01-29T06:05:26.559Z,85.78
2023-01-29T06:06:26.489Z,86.25
2023-01-29T06:07:26.436Z,85.87
2023-01-29T06:08:26.370Z,85.97
2023-01-29T06:09:26.309Z,86.07
2023-01-29T06:10:26.248Z,85.97
2023-01-29T06:11:26.191Z,86.35
2023-01-29T06:12:26.123Z,85.87
2023-01-29T06:13:26.057Z,85.97
2023-01-29T06:14:25.998Z,85.97
2023-01-29T06:15:25.935Z,86.25
2023-01-29T06:16:25.924Z,86.07
2023-01-29T06:17:25.808Z,85.78
2023-01-29T06:18:25.747Z,86.16
2023-01-29T06:19:25.692Z,86.07
2023-01-29T06:20:25.622Z,86.16
2023-01-29T06:21:25.574Z,86.25
2023-01-29T06:22:25.501Z,86.16
2023-01-29T06:23:25.442Z,86.35
2023-01-29T06:24:25.390Z,86.35
2023-01-29T06:25:25.322Z,86.25
2023-01-29T06:26:25.252Z,85.68
2023-01-29T06:27:25.186Z,86.07
2023-01-29T06:28:25.126Z,86.25
2023-01-29T06:29:25.070Z,85.97
2023-01-29T06:30:24.997Z,86.07
2023-01-29T06:31:37.722Z,85.68
2023-01-29T06:32:24.924Z,86.07
2023-01-29T06:33:24.819Z,86.35
2023-01-29T06:34:24.767Z,86.35
2023-01-29T06:35:24.688Z,86.35
2023-01-29T06:36:24.634Z,86.07
2023-01-29T06:37:24.573Z,86.35
2023-01-29T06:38:24.501Z,86.07
2023-01-29T06:39:24.448Z,86.35
2023-01-29T06:40:24.479Z,86.25
2023-01-29T06:41:24.318Z,86.35
2023-01-29T06:42:24.251Z,86.35
2023-01-29T06:43:24.288Z,86.35
2023-01-29T06:44:24.126Z,85.97
2023-01-29T06:45:24.108Z,86.07
2023-01-29T06:46:24.005Z,86.07
2023-01-29T06:47:23.947Z,86.07
2023-01-29T06:48:23.888Z,86.07
2023-01-29T06:49:23.836Z,86.16
2023-01-29T06:50:23.759Z,86.07
2023-01-29T06:51:23.718Z,86.35
2023-01-29T06:52:23.633Z,86.16
2023-01-29T06:53:23.572Z,86.35
2023-01-29T06:54:23.510Z,86.07
2023-01-29T06:55:23.447Z,86.07
2023-01-29T06:56:23.381Z,86.07
2023-01-29T06:57:23.329Z,86.07
2023-01-29T06:58:23.261Z,86.35
2023-01-29T06:59:23.202Z,86.35
2023-01-29T07:00:23.133Z,85.97
2023-01-29T07:01:35.284Z,85.78
2023-01-29T07:02:23.086Z,85.87
2023-01-29T07:03:22.959Z,85.68
2023-01-29T07:04:22.891Z,85.68
2023-01-29T07:05:22.849Z,85.97
2023-01-29T07:06:22.763Z,85.78
2023-01-29T07:07:22.707Z,85.97
2023-01-29T07:08:22.645Z,85.87
2023-01-29T07:09:22.577Z,86.07
2023-01-29T07:10:22.536Z,85.97
2023-01-29T07:11:22.487Z,86.35
2023-01-29T07:12:22.394Z,85.97
2023-01-29T07:13:22.333Z,85.78
2023-01-29T07:14:22.355Z,85.78
2023-01-29T07:15:22.211Z,85.78
2023-01-29T07:16:22.215Z,86.16
2023-01-29T07:17:22.086Z,85.78
2023-01-29T07:18:22.013Z,86.07
2023-01-29T07:19:21.956Z,85.87
2023-01-29T07:20:21.896Z,86.07
2023-01-29T07:21:21.858Z,85.97
2023-01-29T07:22:21.766Z,85.97
2023-01-29T07:23:21.703Z,86.07
2023-01-29T07:24:21.725Z,86.07
2023-01-29T07:25:21.587Z,85.87
2023-01-29T07:26:21.519Z,85.87
2023-01-29T07:27:21.454Z,85.78
2023-01-29T07:28:21.398Z,85.97
2023-01-29T07:29:21.340Z,85.78
2023-01-29T07:30:21.271Z,86.07
2023-01-29T07:31:21.329Z,85.78
2023-01-29T07:32:21.283Z,85.87
2023-01-29T07:33:21.081Z,85.78
2023-01-29T07:34:21.026Z,86.07
2023-01-29T07:35:20.960Z,85.78
2023-01-29T07:36:20.895Z,86.16
2023-01-29T07:37:20.848Z,85.78
2023-01-29T07:38:20.774Z,86.07
2023-01-29T07:39:20.727Z,86.07
2023-01-29T07:40:20.646Z,86.16
2023-01-29T07:41:20.597Z,86.16
2023-01-29T07:42:20.524Z,86.07
2023-01-29T07:43:20.472Z,85.97
2023-01-29T07:44:20.413Z,85.87
2023-01-29T07:45:20.336Z,85.97
2023-01-29T07:46:20.271Z,85.97
2023-01-29T07:47:20.211Z,86.07
2023-01-29T07:48:20.154Z,86.07
2023-01-29T07:49:20.094Z,86.07
2023-01-29T07:50:20.023Z,85.30
2023-01-29T07:51:19.970Z,85.30
2023-01-29T07:52:22.175Z,85.30
2023-01-29T07:53:19.839Z,86.07
2023-01-29T07:54:19.778Z,86.25
2023-01-29T07:55:19.728Z,86.25
2023-01-29T07:56:19.655Z,86.16
2023-01-29T07:57:19.595Z,85.49
2023-01-29T07:58:19.527Z,85.49
2023-01-29T07:59:19.472Z,85.49
2023-01-29T08:00:19.596Z,85.40
2023-01-29T08:01:19.432Z,85.87
2023-01-29T08:02:19.314Z,85.40
2023-01-29T08:03:19.221Z,85.78
2023-01-29T08:04:19.154Z,86.07
2023-01-29T08:05:19.093Z,85.49
2023-01-29T08:06:34.005Z,85.97
2023-01-29T08:07:18.973Z,85.78
2023-01-29T08:08:18.910Z,85.59
2023-01-29T08:09:18.852Z,85.78
2023-01-29T08:10:19.187Z,85.68
2023-01-29T08:11:18.718Z,85.40
2023-01-29T08:12:18.663Z,85.49
2023-01-29T08:13:18.606Z,85.78
2023-01-29T08:14:18.529Z,85.68
2023-01-29T08:15:18.471Z,85.68
2023-01-29T08:16:18.432Z,85.68
2023-01-29T08:17:18.346Z,85.59
2023-01-29T08:18:18.288Z,85.40
2023-01-29T08:19:18.231Z,85.49
2023-01-29T08:20:18.660Z,85.87
2023-01-29T08:21:18.119Z,85.78
2023-01-29T08:22:18.044Z,85.78
2023-01-29T08:23:17.976Z,85.11
2023-01-29T08:24:17.980Z,85.78
2023-01-29T08:25:17.888Z,85.21
2023-01-29T08:26:17.799Z,85.78
2023-01-29T08:27:17.724Z,85.59
2023-01-29T08:28:17.664Z,85.68
2023-01-29T08:29:17.599Z,85.40
2023-01-29T08:30:18.451Z,85.49
2023-01-29T08:31:17.495Z,85.40
2023-01-29T08:32:17.411Z,85.49
2023-01-29T08:33:19.436Z,85.30
2023-01-29T08:34:17.285Z,85.40
2023-01-29T08:35:17.731Z,85.78
2023-01-29T08:36:17.167Z,85.68
2023-01-29T08:37:17.114Z,85.68
2023-01-29T08:38:17.037Z,85.59
2023-01-29T08:39:16.979Z,85.68
2023-01-29T08:40:17.103Z,85.40
2023-01-29T08:41:16.860Z,85.87
2023-01-29T08:42:16.791Z,85.78
2023-01-29T08:43:16.731Z,85.78
2023-01-29T08:44:16.670Z,85.49
2023-01-29T08:45:16.616Z,85.21
2023-01-29T08:46:16.558Z,85.11
2023-01-29T08:47:16.479Z,85.11
2023-01-29T08:48:16.418Z,85.02
2023-01-29T08:49:16.356Z,85.49
2023-01-29T08:50:16.726Z,85.49
2023-01-29T08:51:16.234Z,85.21
2023-01-29T08:52:16.174Z,85.11
2023-01-29T08:53:16.112Z,85.11
2023-01-29T08:54:16.044Z,84.92
2023-01-29T08:55:16.304Z,85.49
2023-01-29T08:56:15.917Z,84.92
2023-01-29T08:57:15.863Z,85.40
2023-01-29T08:58:15.792Z,85.49
2023-01-29T08:59:15.738Z,85.40
2023-01-29T09:00:16.063Z,85.49
2023-01-29T09:01:15.634Z,85.02
2023-01-29T09:02:15.611Z,85.21
2023-01-29T09:03:30.017Z,84.92
2023-01-29T09:04:15.422Z,85.59
2023-01-29T09:05:15.650Z,85.11
2023-01-29T09:06:15.297Z,85.11
2023-01-29T09:07:15.233Z,85.11
2023-01-29T09:08:15.177Z,84.92
2023-01-29T09:09:15.106Z,85.11
2023-01-29T09:10:15.053Z,85.02
2023-01-29T09:11:14.992Z,85.02
2023-01-29T09:12:14.922Z,84.92
2023-01-29T09:13:14.864Z,84.92
2023-01-29T09:14:14.820Z,85.11
2023-01-29T09:15:15.210Z,85.02
2023-01-29T09:16:19.574Z,85.02
2023-01-29T09:17:14.612Z,84.92
2023-01-29T09:18:14.551Z,85.30
2023-01-29T09:19:14.491Z,85.02
2023-01-29T09:20:14.426Z,85.11
2023-01-29T09:21:14.367Z,85.11
2023-01-29T09:22:14.299Z,85.40
2023-01-29T09:23:14.237Z,85.30
2023-01-29T09:24:14.176Z,85.02
2023-01-29T09:25:14.652Z,84.92
2023-01-29T09:26:14.075Z,84.92
2023-01-29T09:27:13.991Z,84.92
2023-01-29T09:28:13.935Z,85.02
2023-01-29T09:29:13.867Z,84.92
2023-01-29T09:30:13.806Z,84.92
2023-01-29T09:31:13.924Z,84.83
2023-01-29T09:32:14.618Z,85.11
2023-01-29T09:33:13.620Z,85.11
2023-01-29T09:34:13.560Z,85.21
2023-01-29T09:35:13.494Z,85.21
2023-01-29T09:36:13.436Z,84.92
2023-01-29T09:37:13.366Z,85.40
2023-01-29T09:38:13.307Z,84.64
2023-01-29T09:39:13.243Z,84.83
2023-01-29T09:40:13.180Z,84.55
2023-01-29T09:41:13.118Z,84.64
2023-01-29T09:42:13.061Z,84.36
2023-01-29T09:43:12.998Z,84.36
2023-01-29T09:44:12.934Z,84.26
2023-01-29T09:45:12.872Z,84.64
2023-01-29T09:46:12.886Z,84.45
2023-01-29T09:47:12.745Z,84.55
2023-01-29T09:48:12.680Z,84.74
2023-01-29T09:49:12.631Z,84.74
2023-01-29T09:50:12.557Z,84.74
2023-01-29T09:51:12.496Z,84.64
2023-01-29T09:52:12.438Z,84.64
2023-01-29T09:53:12.378Z,84.74
2023-01-29T09:54:12.312Z,84.83
2023-01-29T09:55:12.252Z,84.74
2023-01-29T09:56:12.186Z,84.74
2023-01-29T09:57:12.131Z,85.11
2023-01-29T09:58:12.066Z,84.92
2023-01-29T09:59:12.001Z,85.11
2023-01-29T10:00:11.937Z,85.02
2023-01-29T10:01:11.949Z,84.74
2023-01-29T10:02:11.998Z,84.64
2023-01-29T10:03:11.756Z,84.64
2023-01-29T10:04:11.712Z,84.83
2023-01-29T10:05:11.630Z,84.92
2023-01-29T10:06:11.568Z,84.55
2023-01-29T10:07:11.504Z,84.45
2023-01-29T10:08:11.437Z,84.55
2023-01-29T10:09:11.379Z,84.26
2023-01-29T10:10:11.312Z,84.55
2023-01-29T10:11:11.258Z,84.36
2023-01-29T10:12:18.044Z,84.45
2023-01-29T10:13:11.128Z,84.45
2023-01-29T10:14:11.069Z,84.55
2023-01-29T10:15:11.003Z,84.55
2023-01-29T10:16:10.942Z,84.64
2023-01-29T10:17:10.932Z,84.64
2023-01-29T10:18:10.822Z,84.45
2023-01-29T10:19:10.758Z,84.55
2023-01-29T10:20:10.699Z,84.55
2023-01-29T10:21:10.630Z,84.45
2023-01-29T10:22:10.576Z,84.55
2023-01-29T10:23:10.504Z,84.64
2023-01-29T10:24:10.447Z,84.45
2023-01-29T10:25:10.402Z,84.45
2023-01-29T10:26:10.352Z,84.45
2023-01-29T10:27:10.257Z,84.45
2023-01-29T10:28:10.200Z,84.55
2023-01-29T10:29:10.430Z,84.45
2023-01-29T10:30:10.066Z,84.36
2023-01-29T10:31:10.089Z,84.45
2023-01-29T10:32:10.152Z,84.26
2023-01-29T10:33:09.888Z,84.36
2023-01-29T10:34:09.825Z,84.26
2023-01-29T10:35:09.758Z,84.64
2023-01-29T10:36:09.697Z,84.36
2023-01-29T10:37:09.639Z,84.36
2023-01-29T10:38:09.571Z,84.45
2023-01-29T10:39:09.520Z,84.36
2023-01-29T10:40:09.450Z,84.17
2023-01-29T10:41:09.387Z,83.97
2023-01-29T10:42:09.325Z,83.97
2023-01-29T10:43:09.270Z,84.17
2023-01-29T10:44:09.204Z,84.07
2023-01-29T10:45:09.141Z,84.07
2023-01-29T10:46:09.083Z,83.88
2023-01-29T10:47:09.061Z,83.88
2023-01-29T10:48:08.951Z,83.78
2023-01-29T10:49:08.892Z,83.78
2023-01-29T10:50:08.841Z,83.69
2023-01-29T10:51:08.769Z,83.78
2023-01-29T10:52:08.706Z,84.07
2023-01-29T10:53:08.641Z,83.69
2023-01-29T10:54:08.577Z,83.97
2023-01-29T10:55:08.517Z,83.88
2023-01-29T10:56:21.887Z,83.97
2023-01-29T10:57:08.397Z,83.97
2023-01-29T10:58:08.352Z,83.97
2023-01-29T10:59:08.285Z,83.97
2023-01-29T11:00:08.207Z,83.97
2023-01-29T11:01:08.140Z,84.07
2023-01-29T11:02:08.085Z,83.78
2023-01-29T11:03:12.477Z,83.78
2023-01-29T11:04:07.958Z,83.88
2023-01-29T11:05:09.433Z,84.07
2023-01-29T11:06:07.846Z,83.97
2023-01-29T11:07:07.770Z,84.07
2023-01-29T11:08:07.712Z,83.97
2023-01-29T11:09:07.647Z,83.59
2023-01-29T11:10:07.586Z,83.97
2023-01-29T11:11:07.524Z,83.97
2023-01-29T11:12:07.464Z,83.97
2023-01-29T11:13:07.393Z,83.97
2023-01-29T11:14:07.344Z,84.07
2023-01-29T11:15:07.278Z,83.78
2023-01-29T11:16:07.230Z,83.78
2023-01-29T11:17:07.189Z,84.26
2023-01-29T11:18:07.091Z,83.78
2023-01-29T11:19:07.026Z,84.26
2023-01-29T11:20:06.962Z,84.17
2023-01-29T11:21:06.904Z,83.97
2023-01-29T11:22:06.841Z,83.78
2023-01-29T11:23:07.699Z,84.07
2023-01-29T11:24:06.725Z,84.07
2023-01-29T11:25:06.658Z,83.69
2023-01-29T11:26:06.591Z,83.59
2023-01-29T11:27:06.526Z,83.69
2023-01-29T11:28:06.463Z,83.69
2023-01-29T11:29:06.412Z,83.59
2023-01-29T11:30:06.342Z,83.59
2023-01-29T11:31:06.402Z,83.69
2023-01-29T11:32:06.222Z,83.59
2023-01-29T11:33:06.150Z,83.31
2023-01-29T11:34:06.110Z,83.50
2023-01-29T11:35:06.046Z,83.50
2023-01-29T11:36:05.973Z,83.59
2023-01-29T11:37:05.912Z,83.40
2023-01-29T11:38:05.845Z,83.88
2023-01-29T11:39:05.786Z,83.69
2023-01-29T11:40:05.724Z,83.59
2023-01-29T11:41:05.654Z,83.69
2023-01-29T11:42:05.601Z,83.88
2023-01-29T11:43:05.532Z,83.69
2023-01-29T11:44:05.469Z,83.59
2023-01-29T11:45:05.407Z,83.88
2023-01-29T11:46:05.649Z,83.69
2023-01-29T11:47:05.292Z,83.69
2023-01-29T11:48:10.080Z,83.50
2023-01-29T11:49:14.386Z,83.69
2023-01-29T11:50:05.109Z,83.50
2023-01-29T11:51:06.484Z,83.59
2023-01-29T11:52:04.974Z,83.59
2023-01-29T11:53:04.908Z,83.50
2023-01-29T11:54:04.848Z,83.59
2023-01-29T11:55:04.790Z,83.69
2023-01-29T11:56:04.747Z,83.88
2023-01-29T11:57:04.660Z,83.50
2023-01-29T11:58:04.639Z,83.31
2023-01-29T11:59:04.642Z,83.69
2023-01-29T12:00:04.493Z,83.59
2023-01-29T12:01:04.420Z,83.69
2023-01-29T12:02:04.353Z,83.78
2023-01-29T12:03:04.307Z,83.69
2023-01-29T12:04:04.290Z,83.69
2023-01-29T12:05:04.169Z,83.69
2023-01-29T12:06:04.160Z,83.59
2023-01-29T12:07:04.043Z,83.69
2023-01-29T12:08:03.995Z,83.69
2023-01-29T12:09:03.918Z,83.59
2023-01-29T12:10:03.883Z,83.40
2023-01-29T12:11:03.796Z,83.88
2023-01-29T12:12:03.729Z,83.78
2023-01-29T12:13:03.665Z,83.69
2023-01-29T12:14:03.609Z,83.69
2023-01-29T12:15:03.547Z,83.59
2023-01-29T12:16:03.514Z,83.88
2023-01-29T12:17:03.435Z,83.50
2023-01-29T12:18:03.356Z,83.50
2023-01-29T12:19:03.297Z,83.50
2023-01-29T12:20:03.240Z,83.78
2023-01-29T12:21:03.176Z,83.69
2023-01-29T12:22:04.119Z,83.69
2023-01-29T12:23:03.051Z,83.59
2023-01-29T12:24:03.115Z,83.31
2023-01-29T12:25:02.927Z,83.88
2023-01-29T12:26:02.875Z,83.40
2023-01-29T12:27:02.797Z,83.31
2023-01-29T12:28:02.740Z,83.31
2023-01-29T12:29:02.682Z,83.59
2023-01-29T12:30:02.621Z,83.40
2023-01-29T12:31:02.605Z,83.22
2023-01-29T12:32:02.486Z,83.50
2023-01-29T12:33:02.429Z,83.31
2023-01-29T12:34:02.368Z,83.31
2023-01-29T12:35:02.302Z,83.31
2023-01-29T12:36:02.240Z,83.31
2023-01-29T12:37:02.183Z,83.40
2023-01-29T12:38:02.117Z,83.50
2023-01-29T12:39:02.068Z,83.92
2023-01-29T12:40:01.996Z,83.45
2023-01-29T12:41:01.933Z,83.31
2023-01-29T12:42:01.871Z,83.31
2023-01-29T12:43:01.808Z,83.88
2023-01-29T12:44:01.743Z,83.59
2023-01-29T12:45:01.681Z,83.40
2023-01-29T12:46:01.691Z,83.31
2023-01-29T12:47:01.679Z,83.31
2023-01-29T12:48:01.511Z,83.31
2023-01-29T12:49:01.437Z,83.69
2023-01-29T12:50:01.369Z,83.40
2023-01-29T12:51:01.307Z,83.59
2023-01-29T12:52:01.250Z,83.40